KPPA/PPA METAR and TAF weather

Enter ICAO airport designator
Station Type Date Time Source
KPPA METAR 2022/05/23 13:35 UTC NOAA

KPPA 231335Z AUTO 15015G20KT 10SM OVC050 12/06 A3013 RMK AO2 LTG DSNT SE T01200060


Station Type Date Time Source
KPPA Decoded METAR 2022/05/23 13:35 UTC NOAA

Pampa, Perry Lefors Field Airport, TX, United States (KPPA) 35-36-46N 100-59-46W
May 23, 2022 - 09:35 AM EDT / 2022.05.23 1335 UTC
Wind: from the SSE (150 degrees) at 17 MPH (15 KT) gusting to 23 MPH (20 KT):0
Visibility: 10 mile(s):0
Sky conditions: overcast
Weather: Lightning observed
Temperature: 53.6 F (12.0 C)
Dew Point: 42.8 F (6.0 C)
Relative Humidity: 66%
Pressure (altimeter): 30.13 in. Hg (1020 hPa)
ob: KPPA 231335Z AUTO 15015G20KT 10SM OVC050 12/06 A3013 RMK AO2 LTG DSNT SE T01200060
cycle: 13

Station Type Date Time Source
KPPA TAF UTC NOAA

Error!

Example: see airport list